Strona główna
METAR-TAF:

METAR-TAF

Lotnisko :

Port lotniczy Sliač

Bańska Bystrzyca, Słowacja

Szerokość geograficzna: 48-38-17N, Długość geograficzna: 019-08-03E, wysokość: 318 m

Aktualna obserwacja pogody

Raport powstał 29 minut temu, godzina 10:30 UTC
Wiatr 10 kt od północ, zmienny między północny zachód i północny wschód
Temperatura 8°C
Wilgotność 46%
Ciśnienie 1019 hPa
Widzialność 10 km lub więcej
Mało chmury na wysokości 4800 ft

METAR: LZSL 241030Z 01010KT 320V040 9999 FEW048 08/M03 Q1019

czas: 11:59 (10:59 UTC)

Prognoza

Raport powstał 3 godziny i 18 minut temu, godzina 07:41 UTC
Prognoza ważna od 24 godzina 07 UTC do 24 godzina 15 UTC
Wiatr 15 kt od zachodnio-północny zachód
Widzialność 10 km lub więcej
Mało chmury na wysokości 4000 ft
Przejściowo
od 24 godzina 07 UTC do 24 godzina 09 UTC
Wiatr 27 kt od północny zachód w porywach dochodzący do 40 kt

TAF: LZSL 240741Z 2407/2415 30015KT 9999 FEW040 TEMPO 2407/2409 32027G40KT

Obserwacja i prognoza pogody dla ponad 4000 lotnisk (raport METAR i TAF).

Dostępne stacje oznaczono żółtymi i czerwonymi punktami na mapie.

Najedź kursorem aby zobaczyć nazwę stacji.

Kliknij aby zobaczyć obserwacje i prognozy pogody.

Aby zmienić mapę: kliknij na zielony przycisk z czarnym krzyżykiem, aby powiększyć; na zielony przycisk z myślnikiem, aby pomniejszyć; na zielone strzałki, aby przejść do map sąsiednich.


METAR-TAF: